sensor_id;sensor_type;location;lat;lon;timestamp;P1;durP1;ratioP1;P2;durP2;ratioP2
6902;SDS011;20232;49.408;8.702;2024-01-10T05:00:36;15.20;;;8.93;;
6902;SDS011;20232;49.408;8.702;2024-01-10T05:03:02;14.30;;;8.70;;
6902;SDS011;20232;49.408;8.702;2024-01-10T05:05:27;12.47;;;8.40;;
6902;SDS011;20232;49.408;8.702;2024-01-10T05:07:53;16.83;;;9.47;;
6902;SDS011;20232;49.408;8.702;2024-01-10T05:10:18;16.93;;;9.27;;
6902;SDS011;20232;49.408;8.702;2024-01-10T05:12:44;13.80;;;8.67;;
6902;SDS011;20232;49.408;8.702;2024-01-10T05:15:09;15.53;;;8.77;;
6902;SDS011;20232;49.408;8.702;2024-01-10T05:17:34;16.07;;;8.80;;
6902;SDS011;20232;49.408;8.702;2024-01-10T05:20:00;18.77;;;8.90;;
6902;SDS011;20232;49.408;8.702;2024-01-10T05:22:26;17.07;;;8.87;;
6902;SDS011;20232;49.408;8.702;2024-01-10T05:24:51;13.83;;;8.53;;
6902;SDS011;20232;49.408;8.702;2024-01-10T05:27:17;13.97;;;8.47;;
6902;SDS011;20232;49.408;8.702;2024-01-10T05:29:42;14.30;;;7.93;;
6902;SDS011;20232;49.408;8.702;2024-01-10T05:32:08;14.80;;;8.47;;
6902;SDS011;20232;49.408;8.702;2024-01-10T05:34:33;17.00;;;8.87;;
6902;SDS011;20232;49.408;8.702;2024-01-10T05:36:59;12.40;;;7.67;;
6902;SDS011;20232;49.408;8.702;2024-01-10T05:39:24;16.43;;;9.67;;
6902;SDS011;20232;49.408;8.702;2024-01-10T05:41:49;16.13;;;9.30;;
6902;SDS011;20232;49.408;8.702;2024-01-10T05:44:15;15.43;;;8.70;;
6902;SDS011;20232;49.408;8.702;2024-01-10T05:46:40;15.70;;;9.13;;
6902;SDS011;20232;49.408;8.702;2024-01-10T05:49:07;14.37;;;8.70;;
6902;SDS011;20232;49.408;8.702;2024-01-10T05:51:33;16.20;;;9.40;;
6902;SDS011;20232;49.408;8.702;2024-01-10T05:53:59;16.13;;;9.47;;
6902;SDS011;20232;49.408;8.702;2024-01-10T05:56:24;14.13;;;8.57;;
6902;SDS011;20232;49.408;8.702;2024-01-10T05:58:49;15.60;;;8.67;;
6902;SDS011;20232;49.408;8.702;2024-01-10T06:01:16;16.83;;;8.97;;
6902;SDS011;20232;49.408;8.702;2024-01-10T06:03:42;15.30;;;8.97;;
6902;SDS011;20232;49.408;8.702;2024-01-10T06:06:07;15.33;;;8.93;;
6902;SDS011;20232;49.408;8.702;2024-01-10T06:08:34;12.23;;;8.40;;
6902;SDS011;20232;49.408;8.702;2024-01-10T06:11:02;15.63;;;8.93;;
6902;SDS011;20232;49.408;8.702;2024-01-10T06:13:28;17.03;;;9.23;;
6902;SDS011;20232;49.408;8.702;2024-01-10T06:15:54;14.43;;;9.07;;
6902;SDS011;20232;49.408;8.702;2024-01-10T06:18:19;15.60;;;8.77;;
6902;SDS011;20232;49.408;8.702;2024-01-10T06:20:44;17.93;;;9.67;;
6902;SDS011;20232;49.408;8.702;2024-01-10T06:23:10;16.73;;;9.60;;
6902;SDS011;20232;49.408;8.702;2024-01-10T06:25:35;17.93;;;9.63;;
6902;SDS011;20232;49.408;8.702;2024-01-10T06:28:00;18.23;;;9.47;;
6902;SDS011;20232;49.408;8.702;2024-01-10T06:30:26;16.83;;;9.43;;
6902;SDS011;20232;49.408;8.702;2024-01-10T06:32:51;17.03;;;9.70;;
6902;SDS011;20232;49.408;8.702;2024-01-10T06:35:17;17.43;;;9.00;;
6902;SDS011;20232;49.408;8.702;2024-01-10T06:37:42;16.23;;;9.33;;
6902;SDS011;20232;49.408;8.702;2024-01-10T06:40:09;15.73;;;9.10;;
6902;SDS011;20232;49.408;8.702;2024-01-10T06:42:35;15.70;;;8.50;;
6902;SDS011;20232;49.408;8.702;2024-01-10T06:45:00;15.43;;;8.97;;
6902;SDS011;20232;49.408;8.702;2024-01-10T06:47:26;13.37;;;9.17;;
6902;SDS011;20232;49.408;8.702;2024-01-10T06:49:51;15.03;;;8.67;;
6902;SDS011;20232;49.408;8.702;2024-01-10T06:52:17;15.60;;;9.30;;
6902;SDS011;20232;49.408;8.702;2024-01-10T06:54:42;15.73;;;8.37;;
6902;SDS011;20232;49.408;8.702;2024-01-10T06:57:07;16.83;;;9.27;;
6902;SDS011;20232;49.408;8.702;2024-01-10T06:59:33;15.43;;;8.63;;
6902;SDS011;20232;49.408;8.702;2024-01-10T07:01:58;16.93;;;9.43;;
6902;SDS011;20232;49.408;8.702;2024-01-10T07:04:26;16.03;;;10.07;;
6902;SDS011;20232;49.408;8.702;2024-01-10T07:06:53;15.97;;;9.30;;
6902;SDS011;20232;49.408;8.702;2024-01-10T07:09:18;18.03;;;9.63;;
6902;SDS011;20232;49.408;8.702;2024-01-10T07:11:45;15.07;;;8.90;;
6902;SDS011;20232;49.408;8.702;2024-01-10T07:14:12;14.93;;;9.10;;
6902;SDS011;20232;49.408;8.702;2024-01-10T07:16:38;16.80;;;8.70;;
6902;SDS011;20232;49.408;8.702;2024-01-10T07:19:07;15.80;;;10.23;;
6902;SDS011;20232;49.408;8.702;2024-01-10T07:21:39;19.67;;;9.50;;
6902;SDS011;20232;49.408;8.702;2024-01-10T07:24:06;16.03;;;9.37;;
6902;SDS011;20232;49.408;8.702;2024-01-10T07:26:33;14.43;;;9.80;;
6902;SDS011;20232;49.408;8.702;2024-01-10T07:28:59;17.87;;;9.57;;
6902;SDS011;20232;49.408;8.702;2024-01-10T07:31:27;17.60;;;9.10;;
6902;SDS011;20232;49.408;8.702;2024-01-10T07:33:56;16.10;;;9.47;;
6902;SDS011;20232;49.408;8.702;2024-01-10T07:36:23;15.90;;;8.97;;
6902;SDS011;20232;49.408;8.702;2024-01-10T07:38:49;17.77;;;9.17;;
6902;SDS011;20232;49.408;8.702;2024-01-10T07:41:14;18.73;;;10.13;;
6902;SDS011;20232;49.408;8.702;2024-01-10T07:43:40;15.80;;;9.40;;
6902;SDS011;20232;49.408;8.702;2024-01-10T07:46:05;14.07;;;8.57;;
6902;SDS011;20232;49.408;8.702;2024-01-10T07:48:31;17.70;;;9.60;;
6902;SDS011;20232;49.408;8.702;2024-01-10T07:50:56;19.00;;;9.73;;
6902;SDS011;20232;49.408;8.702;2024-01-10T07:53:22;17.13;;;9.93;;
6902;SDS011;20232;49.408;8.702;2024-01-10T07:55:50;21.43;;;10.10;;
6902;SDS011;20232;49.408;8.702;2024-01-10T07:58:16;16.53;;;9.60;;
6902;SDS011;20232;49.408;8.702;2024-01-10T08:00:41;15.57;;;8.83;;
6902;SDS011;20232;49.408;8.702;2024-01-10T08:03:07;21.70;;;10.70;;
6902;SDS011;20232;49.408;8.702;2024-01-10T08:05:33;16.47;;;9.53;;
6902;SDS011;20232;49.408;8.702;2024-01-10T08:07:58;16.43;;;9.43;;
6902;SDS011;20232;49.408;8.702;2024-01-10T08:10:24;15.57;;;9.40;;
6902;SDS011;20232;49.408;8.702;2024-01-10T08:12:49;18.87;;;9.97;;
6902;SDS011;20232;49.408;8.702;2024-01-10T08:15:15;14.97;;;9.10;;
6902;SDS011;20232;49.408;8.702;2024-01-10T08:17:40;21.00;;;10.37;;
6902;SDS011;20232;49.408;8.702;2024-01-10T08:20:06;16.30;;;9.33;;
6902;SDS011;20232;49.408;8.702;2024-01-10T08:22:33;17.53;;;10.00;;
6902;SDS011;20232;49.408;8.702;2024-01-10T08:24:58;16.03;;;9.60;;
6902;SDS011;20232;49.408;8.702;2024-01-10T08:27:24;16.43;;;9.70;;
6902;SDS011;20232;49.408;8.702;2024-01-10T08:29:50;19.33;;;9.40;;
6902;SDS011;20232;49.408;8.702;2024-01-10T08:32:16;16.20;;;9.60;;
6902;SDS011;20232;49.408;8.702;2024-01-10T08:34:43;17.17;;;9.37;;
6902;SDS011;20232;49.408;8.702;2024-01-10T08:37:10;16.27;;;10.23;;
6902;SDS011;20232;49.408;8.702;2024-01-10T08:39:35;18.47;;;9.73;;
6902;SDS011;20232;49.408;8.702;2024-01-10T08:42:00;19.13;;;10.43;;
6902;SDS011;20232;49.408;8.702;2024-01-10T08:44:26;16.30;;;10.13;;
6902;SDS011;20232;49.408;8.702;2024-01-10T08:46:52;17.80;;;9.73;;
6902;SDS011;20232;49.408;8.702;2024-01-10T08:49:18;16.53;;;10.10;;
6902;SDS011;20232;49.408;8.702;2024-01-10T08:51:43;19.57;;;10.80;;
6902;SDS011;20232;49.408;8.702;2024-01-10T08:54:09;16.10;;;10.57;;
6902;SDS011;20232;49.408;8.702;2024-01-10T08:56:37;17.77;;;10.87;;
6902;SDS011;20232;49.408;8.702;2024-01-10T08:59:03;15.43;;;9.73;;
6902;SDS011;20232;49.408;8.702;2024-01-10T09:01:29;17.83;;;9.97;;
6902;SDS011;20232;49.408;8.702;2024-01-10T09:03:54;20.60;;;10.77;;
6902;SDS011;20232;49.408;8.702;2024-01-10T09:06:20;17.93;;;10.77;;
6902;SDS011;20232;49.408;8.702;2024-01-10T09:08:46;17.93;;;10.43;;
6902;SDS011;20232;49.408;8.702;2024-01-10T09:11:11;20.30;;;10.67;;
6902;SDS011;20232;49.408;8.702;2024-01-10T09:13:37;16.00;;;9.93;;
6902;SDS011;20232;49.408;8.702;2024-01-10T09:16:05;16.37;;;9.97;;
6902;SDS011;20232;49.408;8.702;2024-01-10T09:18:30;17.50;;;10.23;;
6902;SDS011;20232;49.408;8.702;2024-01-10T09:20:55;21.53;;;10.83;;
6902;SDS011;20232;49.408;8.702;2024-01-10T09:23:21;17.83;;;10.17;;
6902;SDS011;20232;49.408;8.702;2024-01-10T09:25:46;16.47;;;9.87;;
6902;SDS011;20232;49.408;8.702;2024-01-10T09:28:12;17.53;;;10.67;;
6902;SDS011;20232;49.408;8.702;2024-01-10T09:30:38;19.07;;;10.33;;
6902;SDS011;20232;49.408;8.702;2024-01-10T09:33:04;21.40;;;11.00;;
6902;SDS011;20232;49.408;8.702;2024-01-10T09:35:29;18.47;;;11.10;;
6902;SDS011;20232;49.408;8.702;2024-01-10T09:37:54;19.50;;;10.80;;
6902;SDS011;20232;49.408;8.702;2024-01-10T09:40:20;16.73;;;10.47;;
6902;SDS011;20232;49.408;8.702;2024-01-10T09:42:52;16.27;;;10.80;;
6902;SDS011;20232;49.408;8.702;2024-01-10T09:45:19;17.20;;;10.07;;
6902;SDS011;20232;49.408;8.702;2024-01-10T09:47:50;18.03;;;10.33;;
6902;SDS011;20232;49.408;8.702;2024-01-10T09:50:17;19.73;;;11.50;;
6902;SDS011;20232;49.408;8.702;2024-01-10T09:52:53;19.53;;;11.40;;
6902;SDS011;20232;49.408;8.702;2024-01-10T09:55:22;24.03;;;12.97;;
6902;SDS011;20232;49.408;8.702;2024-01-10T09:57:50;19.77;;;10.87;;
6902;SDS011;20232;49.408;8.702;2024-01-10T10:00:16;18.73;;;11.50;;
6902;SDS011;20232;49.408;8.702;2024-01-10T10:02:42;19.50;;;10.73;;
6902;SDS011;20232;49.408;8.702;2024-01-10T10:07:46;21.67;;;11.23;;
6902;SDS011;20232;49.408;8.702;2024-01-10T10:10:12;18.07;;;10.80;;
6902;SDS011;20232;49.408;8.702;2024-01-10T10:12:43;18.13;;;11.03;;
6902;SDS011;20232;49.408;8.702;2024-01-10T10:15:18;18.53;;;11.33;;
6902;SDS011;20232;49.408;8.702;2024-01-10T10:17:46;20.77;;;12.10;;
6902;SDS011;20232;49.408;8.702;2024-01-10T10:25:31;21.60;;;12.23;;
6902;SDS011;20232;49.408;8.702;2024-01-10T10:28:09;17.40;;;11.17;;
6902;SDS011;20232;49.408;8.702;2024-01-10T10:30:34;21.00;;;11.20;;
6902;SDS011;20232;49.408;8.702;2024-01-10T10:33:03;19.43;;;11.20;;
6902;SDS011;20232;49.408;8.702;2024-01-10T10:35:29;19.43;;;10.83;;
6902;SDS011;20232;49.408;8.702;2024-01-10T10:37:55;20.07;;;11.60;;
6902;SDS011;20232;49.408;8.702;2024-01-10T10:40:21;22.20;;;11.93;;
6902;SDS011;20232;49.408;8.702;2024-01-10T10:42:47;19.03;;;10.97;;
6902;SDS011;20232;49.408;8.702;2024-01-10T10:45:15;17.70;;;11.33;;
6902;SDS011;20232;49.408;8.702;2024-01-10T10:47:45;19.83;;;10.60;;
6902;SDS011;20232;49.408;8.702;2024-01-10T10:50:19;19.20;;;11.13;;
6902;SDS011;20232;49.408;8.702;2024-01-10T10:52:47;19.90;;;11.67;;
6902;SDS011;20232;49.408;8.702;2024-01-10T10:55:17;20.63;;;12.43;;
6902;SDS011;20232;49.408;8.702;2024-01-10T10:57:49;20.13;;;11.90;;
6902;SDS011;20232;49.408;8.702;2024-01-10T11:00:17;22.00;;;11.87;;
6902;SDS011;20232;49.408;8.702;2024-01-10T11:02:45;32.47;;;13.20;;
6902;SDS011;20232;49.408;8.702;2024-01-10T11:05:11;20.57;;;11.70;;
6902;SDS011;20232;49.408;8.702;2024-01-10T11:07:37;20.63;;;12.37;;
6902;SDS011;20232;49.408;8.702;2024-01-10T11:10:04;20.67;;;12.20;;
6902;SDS011;20232;49.408;8.702;2024-01-10T11:12:38;22.03;;;12.27;;
6902;SDS011;20232;49.408;8.702;2024-01-10T11:20:47;22.17;;;11.77;;
6902;SDS011;20232;49.408;8.702;2024-01-10T11:26:13;22.23;;;11.70;;
6902;SDS011;20232;49.408;8.702;2024-01-10T11:28:40;22.30;;;11.60;;
6902;SDS011;20232;49.408;8.702;2024-01-10T11:31:08;23.63;;;12.60;;
6902;SDS011;20232;49.408;8.702;2024-01-10T11:33:37;24.37;;;12.20;;
6902;SDS011;20232;49.408;8.702;2024-01-10T11:41:37;19.50;;;11.37;;
6902;SDS011;20232;49.408;8.702;2024-01-10T11:46:46;20.17;;;12.07;;
6902;SDS011;20232;49.408;8.702;2024-01-10T11:49:16;22.77;;;11.73;;
6902;SDS011;20232;49.408;8.702;2024-01-10T11:51:43;23.33;;;12.20;;
6902;SDS011;20232;49.408;8.702;2024-01-10T11:54:09;21.17;;;12.30;;
6902;SDS011;20232;49.408;8.702;2024-01-10T11:56:38;19.97;;;11.83;;
6902;SDS011;20232;49.408;8.702;2024-01-10T11:59:08;22.53;;;12.33;;
6902;SDS011;20232;49.408;8.702;2024-01-10T12:01:36;22.67;;;12.93;;
6902;SDS011;20232;49.408;8.702;2024-01-10T12:04:04;19.30;;;11.80;;
6902;SDS011;20232;49.408;8.702;2024-01-10T12:06:30;18.30;;;11.30;;
6902;SDS011;20232;49.408;8.702;2024-01-10T12:09:00;16.03;;;11.30;;
6902;SDS011;20232;49.408;8.702;2024-01-10T12:11:32;20.57;;;11.30;;
6902;SDS011;20232;49.408;8.702;2024-01-10T12:13:58;17.20;;;11.20;;
6902;SDS011;20232;49.408;8.702;2024-01-10T12:16:24;19.57;;;10.77;;
6902;SDS011;20232;49.408;8.702;2024-01-10T12:18:49;21.83;;;11.70;;
6902;SDS011;20232;49.408;8.702;2024-01-10T12:21:16;20.17;;;11.63;;
6902;SDS011;20232;49.408;8.702;2024-01-10T12:23:42;18.30;;;11.60;;
6902;SDS011;20232;49.408;8.702;2024-01-10T12:26:09;22.20;;;11.87;;
6902;SDS011;20232;49.408;8.702;2024-01-10T12:28:38;19.43;;;11.93;;
6902;SDS011;20232;49.408;8.702;2024-01-10T12:31:04;18.87;;;11.67;;
6902;SDS011;20232;49.408;8.702;2024-01-10T12:33:33;19.80;;;11.37;;
6902;SDS011;20232;49.408;8.702;2024-01-10T12:38:35;20.40;;;12.47;;
6902;SDS011;20232;49.408;8.702;2024-01-10T12:41:01;20.47;;;11.73;;
6902;SDS011;20232;49.408;8.702;2024-01-10T12:43:27;21.67;;;12.70;;
6902;SDS011;20232;49.408;8.702;2024-01-10T12:46:02;21.47;;;12.37;;
6902;SDS011;20232;49.408;8.702;2024-01-10T12:48:37;20.13;;;12.20;;
6902;SDS011;20232;49.408;8.702;2024-01-10T12:51:09;22.27;;;12.00;;
6902;SDS011;20232;49.408;8.702;2024-01-10T12:53:38;21.33;;;12.47;;
6902;SDS011;20232;49.408;8.702;2024-01-10T12:56:05;20.83;;;11.97;;
6902;SDS011;20232;49.408;8.702;2024-01-10T12:58:31;21.07;;;12.37;;
6902;SDS011;20232;49.408;8.702;2024-01-10T13:00:57;20.47;;;12.03;;
6902;SDS011;20232;49.408;8.702;2024-01-10T13:03:23;20.43;;;11.63;;
6902;SDS011;20232;49.408;8.702;2024-01-10T13:05:49;23.47;;;12.53;;
6902;SDS011;20232;49.408;8.702;2024-01-10T13:08:15;23.33;;;12.03;;
6902;SDS011;20232;49.408;8.702;2024-01-10T13:10:41;18.90;;;11.67;;
6902;SDS011;20232;49.408;8.702;2024-01-10T13:13:07;21.10;;;12.37;;
6902;SDS011;20232;49.408;8.702;2024-01-10T13:15:32;20.57;;;12.03;;
6902;SDS011;20232;49.408;8.702;2024-01-10T13:17:57;23.37;;;12.60;;
6902;SDS011;20232;49.408;8.702;2024-01-10T13:20:23;20.90;;;12.17;;
6902;SDS011;20232;49.408;8.702;2024-01-10T13:22:49;20.20;;;12.00;;
6902;SDS011;20232;49.408;8.702;2024-01-10T13:25:15;22.93;;;12.00;;
6902;SDS011;20232;49.408;8.702;2024-01-10T13:27:41;20.57;;;11.60;;
6902;SDS011;20232;49.408;8.702;2024-01-10T13:30:07;20.83;;;12.23;;
6902;SDS011;20232;49.408;8.702;2024-01-10T13:32:36;21.40;;;11.97;;
6902;SDS011;20232;49.408;8.702;2024-01-10T13:35:02;22.37;;;12.57;;
6902;SDS011;20232;49.408;8.702;2024-01-10T13:37:28;19.80;;;12.37;;
6902;SDS011;20232;49.408;8.702;2024-01-10T13:39:54;25.87;;;14.77;;
6902;SDS011;20232;49.408;8.702;2024-01-10T13:42:20;24.70;;;14.07;;
6902;SDS011;20232;49.408;8.702;2024-01-10T13:44:45;19.27;;;11.97;;
6902;SDS011;20232;49.408;8.702;2024-01-10T13:47:11;20.30;;;12.50;;
6902;SDS011;20232;49.408;8.702;2024-01-10T13:49:37;22.50;;;12.93;;
6902;SDS011;20232;49.408;8.702;2024-01-10T13:52:02;23.27;;;11.83;;
6902;SDS011;20232;49.408;8.702;2024-01-10T13:54:28;19.83;;;11.70;;
6902;SDS011;20232;49.408;8.702;2024-01-10T13:56:53;21.67;;;12.70;;
6902;SDS011;20232;49.408;8.702;2024-01-10T13:59:18;20.70;;;11.63;;
6902;SDS011;20232;49.408;8.702;2024-01-10T14:01:44;22.63;;;13.07;;
6902;SDS011;20232;49.408;8.702;2024-01-10T14:04:09;21.10;;;13.13;;
6902;SDS011;20232;49.408;8.702;2024-01-10T14:06:35;21.37;;;13.00;;
6902;SDS011;20232;49.408;8.702;2024-01-10T14:09:01;24.67;;;13.30;;
6902;SDS011;20232;49.408;8.702;2024-01-10T14:11:27;21.73;;;12.30;;
6902;SDS011;20232;49.408;8.702;2024-01-10T14:13:52;20.87;;;12.37;;
6902;SDS011;20232;49.408;8.702;2024-01-10T14:16:19;21.17;;;11.70;;
6902;SDS011;20232;49.408;8.702;2024-01-10T14:18:44;21.97;;;12.90;;
6902;SDS011;20232;49.408;8.702;2024-01-10T14:21:12;19.10;;;12.30;;
6902;SDS011;20232;49.408;8.702;2024-01-10T14:23:37;18.27;;;11.70;;
6902;SDS011;20232;49.408;8.702;2024-01-10T14:26:03;18.03;;;11.53;;
6902;SDS011;20232;49.408;8.702;2024-01-10T14:28:30;22.87;;;12.57;;
6902;SDS011;20232;49.408;8.702;2024-01-10T14:30:58;21.33;;;12.47;;
6902;SDS011;20232;49.408;8.702;2024-01-10T14:33:25;22.40;;;12.03;;
6902;SDS011;20232;49.408;8.702;2024-01-10T14:35:50;22.83;;;12.63;;
6902;SDS011;20232;49.408;8.702;2024-01-10T14:38:16;21.50;;;12.97;;
6902;SDS011;20232;49.408;8.702;2024-01-10T14:40:41;21.60;;;11.87;;
6902;SDS011;20232;49.408;8.702;2024-01-10T14:43:07;20.93;;;11.70;;
6902;SDS011;20232;49.408;8.702;2024-01-10T14:45:32;21.23;;;12.73;;
6902;SDS011;20232;49.408;8.702;2024-01-10T14:47:57;21.93;;;13.10;;
6902;SDS011;20232;49.408;8.702;2024-01-10T14:50:23;20.87;;;12.80;;
6902;SDS011;20232;49.408;8.702;2024-01-10T14:52:49;20.70;;;12.60;;
6902;SDS011;20232;49.408;8.702;2024-01-10T14:55:15;22.83;;;13.00;;
6902;SDS011;20232;49.408;8.702;2024-01-10T14:57:41;19.40;;;12.17;;
6902;SDS011;20232;49.408;8.702;2024-01-10T15:00:06;21.37;;;12.03;;
6902;SDS011;20232;49.408;8.702;2024-01-10T15:02:32;19.23;;;12.23;;
6902;SDS011;20232;49.408;8.702;2024-01-10T15:04:57;22.30;;;12.80;;
6902;SDS011;20232;49.408;8.702;2024-01-10T15:07:23;24.03;;;13.07;;
6902;SDS011;20232;49.408;8.702;2024-01-10T15:09:48;22.03;;;12.20;;
6902;SDS011;20232;49.408;8.702;2024-01-10T15:12:14;21.90;;;12.00;;
6902;SDS011;20232;49.408;8.702;2024-01-10T15:14:39;27.87;;;13.63;;
6902;SDS011;20232;49.408;8.702;2024-01-10T15:17:05;22.60;;;13.23;;
6902;SDS011;20232;49.408;8.702;2024-01-10T15:19:33;23.17;;;13.60;;
6902;SDS011;20232;49.408;8.702;2024-01-10T15:21:59;19.80;;;12.23;;
6902;SDS011;20232;49.408;8.702;2024-01-10T15:24:25;21.03;;;12.97;;
6902;SDS011;20232;49.408;8.702;2024-01-10T15:26:50;23.70;;;12.47;;
6902;SDS011;20232;49.408;8.702;2024-01-10T15:29:17;22.07;;;12.93;;
6902;SDS011;20232;49.408;8.702;2024-01-10T15:31:42;22.23;;;13.53;;
6902;SDS011;20232;49.408;8.702;2024-01-10T15:34:08;22.70;;;12.37;;
6902;SDS011;20232;49.408;8.702;2024-01-10T15:36:33;27.37;;;13.10;;
6902;SDS011;20232;49.408;8.702;2024-01-10T15:38:59;21.70;;;13.33;;
6902;SDS011;20232;49.408;8.702;2024-01-10T15:41:25;24.87;;;13.23;;
6902;SDS011;20232;49.408;8.702;2024-01-10T15:43:50;22.70;;;13.37;;
6902;SDS011;20232;49.408;8.702;2024-01-10T15:46:19;21.70;;;13.27;;
6902;SDS011;20232;49.408;8.702;2024-01-10T15:48:45;21.73;;;13.33;;
6902;SDS011;20232;49.408;8.702;2024-01-10T15:51:11;24.83;;;12.63;;
6902;SDS011;20232;49.408;8.702;2024-01-10T15:53:36;21.50;;;12.67;;
6902;SDS011;20232;49.408;8.702;2024-01-10T15:56:02;23.87;;;13.50;;
6902;SDS011;20232;49.408;8.702;2024-01-10T15:58:27;24.23;;;14.37;;
6902;SDS011;20232;49.408;8.702;2024-01-10T16:00:53;19.53;;;13.60;;
6902;SDS011;20232;49.408;8.702;2024-01-10T16:03:18;27.60;;;14.97;;
6902;SDS011;20232;49.408;8.702;2024-01-10T16:05:44;24.77;;;14.20;;
6902;SDS011;20232;49.408;8.702;2024-01-10T16:08:09;23.50;;;13.03;;
6902;SDS011;20232;49.408;8.702;2024-01-10T16:10:35;25.37;;;15.27;;
6902;SDS011;20232;49.408;8.702;2024-01-10T16:13:00;25.13;;;14.10;;
6902;SDS011;20232;49.408;8.702;2024-01-10T16:15:25;26.43;;;14.17;;
6902;SDS011;20232;49.408;8.702;2024-01-10T16:17:51;36.73;;;20.83;;
6902;SDS011;20232;49.408;8.702;2024-01-10T16:20:16;26.97;;;15.93;;
6902;SDS011;20232;49.408;8.702;2024-01-10T16:22:42;26.67;;;15.10;;
6902;SDS011;20232;49.408;8.702;2024-01-10T16:25:07;28.83;;;15.73;;
6902;SDS011;20232;49.408;8.702;2024-01-10T16:27:33;38.27;;;18.27;;
6902;SDS011;20232;49.408;8.702;2024-01-10T16:29:58;33.43;;;17.67;;
6902;SDS011;20232;49.408;8.702;2024-01-10T16:32:25;37.90;;;18.53;;
6902;SDS011;20232;49.408;8.702;2024-01-10T16:34:51;34.73;;;18.03;;
6902;SDS011;20232;49.408;8.702;2024-01-10T16:37:17;31.03;;;15.97;;
6902;SDS011;20232;49.408;8.702;2024-01-10T16:39:42;29.53;;;15.57;;
6902;SDS011;20232;49.408;8.702;2024-01-10T16:42:07;32.90;;;17.63;;
6902;SDS011;20232;49.408;8.702;2024-01-10T16:44:38;31.00;;;16.20;;
6902;SDS011;20232;49.408;8.702;2024-01-10T16:47:05;26.17;;;14.70;;
6902;SDS011;20232;49.408;8.702;2024-01-10T16:49:31;24.00;;;14.67;;
6902;SDS011;20232;49.408;8.702;2024-01-10T16:51:57;22.57;;;13.70;;
6902;SDS011;20232;49.408;8.702;2024-01-10T16:54:22;24.00;;;12.33;;
6902;SDS011;20232;49.408;8.702;2024-01-10T16:56:47;22.63;;;13.37;;
6902;SDS011;20232;49.408;8.702;2024-01-10T16:59:13;27.07;;;14.30;;
6902;SDS011;20232;49.408;8.702;2024-01-10T17:01:38;23.00;;;13.43;;
6902;SDS011;20232;49.408;8.702;2024-01-10T17:04:04;22.37;;;12.77;;
6902;SDS011;20232;49.408;8.702;2024-01-10T17:06:29;19.60;;;12.67;;
6902;SDS011;20232;49.408;8.702;2024-01-10T17:08:54;23.30;;;13.60;;
6902;SDS011;20232;49.408;8.702;2024-01-10T17:11:20;25.53;;;14.27;;
6902;SDS011;20232;49.408;8.702;2024-01-10T17:13:45;35.10;;;19.23;;
6902;SDS011;20232;49.408;8.702;2024-01-10T17:16:11;31.90;;;18.30;;
6902;SDS011;20232;49.408;8.702;2024-01-10T17:18:36;28.57;;;15.27;;
6902;SDS011;20232;49.408;8.702;2024-01-10T17:21:01;26.73;;;14.50;;
6902;SDS011;20232;49.408;8.702;2024-01-10T17:23:27;27.93;;;15.17;;
6902;SDS011;20232;49.408;8.702;2024-01-10T17:25:52;28.00;;;14.73;;
6902;SDS011;20232;49.408;8.702;2024-01-10T17:28:19;27.20;;;15.37;;
6902;SDS011;20232;49.408;8.702;2024-01-10T17:30:47;30.50;;;16.97;;
6902;SDS011;20232;49.408;8.702;2024-01-10T17:33:12;32.60;;;16.03;;
6902;SDS011;20232;49.408;8.702;2024-01-10T17:35:38;27.20;;;15.83;;
6902;SDS011;20232;49.408;8.702;2024-01-10T17:38:03;31.23;;;15.43;;
6902;SDS011;20232;49.408;8.702;2024-01-10T17:40:30;31.40;;;16.13;;
6902;SDS011;20232;49.408;8.702;2024-01-10T17:42:56;28.93;;;16.40;;
6902;SDS011;20232;49.408;8.702;2024-01-10T17:45:21;27.60;;;14.93;;
6902;SDS011;20232;49.408;8.702;2024-01-10T17:47:46;25.27;;;15.13;;
6902;SDS011;20232;49.408;8.702;2024-01-10T17:50:12;29.27;;;15.40;;
6902;SDS011;20232;49.408;8.702;2024-01-10T17:52:37;26.60;;;14.70;;
6902;SDS011;20232;49.408;8.702;2024-01-10T17:55:03;29.17;;;15.20;;
6902;SDS011;20232;49.408;8.702;2024-01-10T17:57:29;24.23;;;13.80;;
6902;SDS011;20232;49.408;8.702;2024-01-10T17:59:55;24.73;;;13.87;;
6902;SDS011;20232;49.408;8.702;2024-01-10T18:02:21;31.37;;;15.07;;
6902;SDS011;20232;49.408;8.702;2024-01-10T18:04:47;26.13;;;14.27;;
6902;SDS011;20232;49.408;8.702;2024-01-10T18:07:13;27.83;;;14.83;;
6902;SDS011;20232;49.408;8.702;2024-01-10T18:09:39;23.67;;;13.67;;
6902;SDS011;20232;49.408;8.702;2024-01-10T18:12:05;30.20;;;16.17;;
6902;SDS011;20232;49.408;8.702;2024-01-10T18:14:31;36.43;;;17.77;;
6902;SDS011;20232;49.408;8.702;2024-01-10T18:16:58;36.43;;;18.43;;
6902;SDS011;20232;49.408;8.702;2024-01-10T18:19:25;30.07;;;16.30;;
6902;SDS011;20232;49.408;8.702;2024-01-10T18:21:51;29.70;;;15.13;;
6902;SDS011;20232;49.408;8.702;2024-01-10T18:24:16;27.80;;;15.97;;
6902;SDS011;20232;49.408;8.702;2024-01-10T18:26:42;28.27;;;15.40;;
6902;SDS011;20232;49.408;8.702;2024-01-10T18:29:07;28.57;;;14.83;;
6902;SDS011;20232;49.408;8.702;2024-01-10T18:31:33;26.17;;;15.00;;
6902;SDS011;20232;49.408;8.702;2024-01-10T18:33:58;26.27;;;15.30;;
6902;SDS011;20232;49.408;8.702;2024-01-10T18:36:24;25.37;;;14.83;;
6902;SDS011;20232;49.408;8.702;2024-01-10T18:38:49;26.43;;;15.37;;
6902;SDS011;20232;49.408;8.702;2024-01-10T18:41:15;26.67;;;15.43;;
6902;SDS011;20232;49.408;8.702;2024-01-10T18:43:40;27.73;;;14.30;;
6902;SDS011;20232;49.408;8.702;2024-01-10T18:46:06;33.17;;;17.13;;
6902;SDS011;20232;49.408;8.702;2024-01-10T18:48:31;25.70;;;15.70;;
6902;SDS011;20232;49.408;8.702;2024-01-10T18:50:57;27.90;;;15.97;;
6902;SDS011;20232;49.408;8.702;2024-01-10T18:53:22;26.80;;;15.13;;
6902;SDS011;20232;49.408;8.702;2024-01-10T18:55:48;23.80;;;15.33;;
6902;SDS011;20232;49.408;8.702;2024-01-10T18:58:13;26.43;;;14.30;;
6902;SDS011;20232;49.408;8.702;2024-01-10T19:00:39;28.20;;;14.73;;
6902;SDS011;20232;49.408;8.702;2024-01-10T19:03:06;27.53;;;14.77;;
6902;SDS011;20232;49.408;8.702;2024-01-10T19:05:32;30.43;;;15.73;;
6902;SDS011;20232;49.408;8.702;2024-01-10T19:07:57;26.90;;;15.53;;
6902;SDS011;20232;49.408;8.702;2024-01-10T19:10:23;31.90;;;15.93;;
6902;SDS011;20232;49.408;8.702;2024-01-10T19:12:48;26.70;;;14.97;;
6902;SDS011;20232;49.408;8.702;2024-01-10T19:15:14;29.43;;;16.13;;
6902;SDS011;20232;49.408;8.702;2024-01-10T19:17:39;31.37;;;16.30;;
6902;SDS011;20232;49.408;8.702;2024-01-10T19:20:05;30.13;;;15.40;;
6902;SDS011;20232;49.408;8.702;2024-01-10T19:22:31;28.57;;;15.20;;
6902;SDS011;20232;49.408;8.702;2024-01-10T19:24:57;22.33;;;13.50;;
6902;SDS011;20232;49.408;8.702;2024-01-10T19:27:22;29.43;;;15.50;;
6902;SDS011;20232;49.408;8.702;2024-01-10T19:29:47;26.53;;;15.10;;
6902;SDS011;20232;49.408;8.702;2024-01-10T19:32:13;27.83;;;15.53;;
6902;SDS011;20232;49.408;8.702;2024-01-10T19:34:38;28.90;;;15.33;;
6902;SDS011;20232;49.408;8.702;2024-01-10T19:37:04;28.00;;;14.97;;
6902;SDS011;20232;49.408;8.702;2024-01-10T19:39:33;33.73;;;17.13;;
6902;SDS011;20232;49.408;8.702;2024-01-10T19:41:59;31.47;;;15.97;;
6902;SDS011;20232;49.408;8.702;2024-01-10T19:44:24;28.20;;;15.83;;
6902;SDS011;20232;49.408;8.702;2024-01-10T19:46:50;30.17;;;16.67;;
6902;SDS011;20232;49.408;8.702;2024-01-10T19:49:16;28.93;;;15.93;;
6902;SDS011;20232;49.408;8.702;2024-01-10T19:51:41;28.70;;;15.63;;
6902;SDS011;20232;49.408;8.702;2024-01-10T19:54:07;30.37;;;16.60;;
6902;SDS011;20232;49.408;8.702;2024-01-10T19:56:33;29.27;;;15.93;;
6902;SDS011;20232;49.408;8.702;2024-01-10T19:58:59;29.83;;;16.47;;